sensor_id;sensor_type;location;lat;lon;timestamp;temperature;humidity
16247;DHT22;8231;50.866;7.944;2022-09-03T00:00:17;10.80;99.90
16247;DHT22;8231;50.866;7.944;2022-09-03T00:02:51;10.80;99.90
16247;DHT22;8231;50.866;7.944;2022-09-03T00:05:25;10.70;99.90
16247;DHT22;8231;50.866;7.944;2022-09-03T00:08:01;10.70;99.90
16247;DHT22;8231;50.866;7.944;2022-09-03T00:10:38;10.70;99.90
16247;DHT22;8231;50.866;7.944;2022-09-03T00:13:13;10.70;99.90
16247;DHT22;8231;50.866;7.944;2022-09-03T00:15:42;10.80;99.90
16247;DHT22;8231;50.866;7.944;2022-09-03T00:18:14;10.70;99.90
16247;DHT22;8231;50.866;7.944;2022-09-03T00:20:49;10.70;99.90
16247;DHT22;8231;50.866;7.944;2022-09-03T00:23:20;10.60;99.90
16247;DHT22;8231;50.866;7.944;2022-09-03T00:25:52;10.60;99.90
16247;DHT22;8231;50.866;7.944;2022-09-03T00:28:26;10.60;99.90
16247;DHT22;8231;50.866;7.944;2022-09-03T00:31:06;10.60;99.90
16247;DHT22;8231;50.866;7.944;2022-09-03T00:33:39;10.70;99.90
16247;DHT22;8231;50.866;7.944;2022-09-03T00:36:14;10.70;99.90
16247;DHT22;8231;50.866;7.944;2022-09-03T00:38:43;10.70;99.90
16247;DHT22;8231;50.866;7.944;2022-09-03T00:41:21;10.70;99.90
16247;DHT22;8231;50.866;7.944;2022-09-03T00:44:05;10.70;99.90
16247;DHT22;8231;50.866;7.944;2022-09-03T00:46:44;10.70;99.90
16247;DHT22;8231;50.866;7.944;2022-09-03T00:49:24;10.60;99.90
16247;DHT22;8231;50.866;7.944;2022-09-03T00:52:02;10.90;99.90
16247;DHT22;8231;50.866;7.944;2022-09-03T00:54:42;10.60;99.90
16247;DHT22;8231;50.866;7.944;2022-09-03T00:57:31;10.60;99.90
16247;DHT22;8231;50.866;7.944;2022-09-03T01:00:06;10.60;99.90
16247;DHT22;8231;50.866;7.944;2022-09-03T01:02:52;10.60;99.90
16247;DHT22;8231;50.866;7.944;2022-09-03T01:05:32;10.50;99.90
16247;DHT22;8231;50.866;7.944;2022-09-03T01:08:11;10.50;99.90
16247;DHT22;8231;50.866;7.944;2022-09-03T01:10:49;10.60;99.90
16247;DHT22;8231;50.866;7.944;2022-09-03T01:13:31;10.50;99.90
16247;DHT22;8231;50.866;7.944;2022-09-03T01:16:09;10.50;99.90
16247;DHT22;8231;50.866;7.944;2022-09-03T01:18:45;10.50;99.90
16247;DHT22;8231;50.866;7.944;2022-09-03T01:24:32;10.50;99.90
16247;DHT22;8231;50.866;7.944;2022-09-03T01:27:20;10.40;99.90
16247;DHT22;8231;50.866;7.944;2022-09-03T01:29:58;10.40;99.90
16247;DHT22;8231;50.866;7.944;2022-09-03T01:32:35;10.40;99.90
16247;DHT22;8231;50.866;7.944;2022-09-03T01:35:10;10.60;99.90
16247;DHT22;8231;50.866;7.944;2022-09-03T01:37:52;10.40;99.90
16247;DHT22;8231;50.866;7.944;2022-09-03T01:40:29;10.50;99.90
16247;DHT22;8231;50.866;7.944;2022-09-03T01:43:20;10.40;99.90
16247;DHT22;8231;50.866;7.944;2022-09-03T01:45:54;10.40;99.90
16247;DHT22;8231;50.866;7.944;2022-09-03T01:48:37;10.40;99.90
16247;DHT22;8231;50.866;7.944;2022-09-03T01:51:15;10.40;99.90
16247;DHT22;8231;50.866;7.944;2022-09-03T01:54:05;10.40;99.90
16247;DHT22;8231;50.866;7.944;2022-09-03T01:57:11;10.50;99.90
16247;DHT22;8231;50.866;7.944;2022-09-03T02:00:06;10.50;99.90
16247;DHT22;8231;50.866;7.944;2022-09-03T02:02:40;10.50;99.90
16247;DHT22;8231;50.866;7.944;2022-09-03T02:05:11;10.60;99.90
16247;DHT22;8231;50.866;7.944;2022-09-03T02:07:42;10.60;99.90
16247;DHT22;8231;50.866;7.944;2022-09-03T02:10:13;10.60;99.90
16247;DHT22;8231;50.866;7.944;2022-09-03T02:12:45;10.60;99.90
16247;DHT22;8231;50.866;7.944;2022-09-03T02:15:17;10.60;99.90
16247;DHT22;8231;50.866;7.944;2022-09-03T02:17:47;10.60;99.90
16247;DHT22;8231;50.866;7.944;2022-09-03T02:20:19;10.50;99.90
16247;DHT22;8231;50.866;7.944;2022-09-03T02:22:48;10.60;99.90
16247;DHT22;8231;50.866;7.944;2022-09-03T02:25:17;10.70;99.90
16247;DHT22;8231;50.866;7.944;2022-09-03T02:27:47;10.70;99.90
16247;DHT22;8231;50.866;7.944;2022-09-03T02:30:16;10.70;99.90
16247;DHT22;8231;50.866;7.944;2022-09-03T02:32:46;10.70;99.90
16247;DHT22;8231;50.866;7.944;2022-09-03T02:35:14;10.60;99.90
16247;DHT22;8231;50.866;7.944;2022-09-03T02:37:42;10.70;99.90
16247;DHT22;8231;50.866;7.944;2022-09-03T02:40:10;10.70;99.90
16247;DHT22;8231;50.866;7.944;2022-09-03T02:42:38;10.70;99.90
16247;DHT22;8231;50.866;7.944;2022-09-03T02:45:15;10.90;99.90
16247;DHT22;8231;50.866;7.944;2022-09-03T02:47:50;10.70;99.90
16247;DHT22;8231;50.866;7.944;2022-09-03T02:50:19;10.70;99.90
16247;DHT22;8231;50.866;7.944;2022-09-03T02:52:48;10.70;99.90
16247;DHT22;8231;50.866;7.944;2022-09-03T02:55:17;10.70;99.90
16247;DHT22;8231;50.866;7.944;2022-09-03T02:57:45;10.80;99.90
16247;DHT22;8231;50.866;7.944;2022-09-03T03:00:14;10.80;99.90
16247;DHT22;8231;50.866;7.944;2022-09-03T03:02:42;11.00;99.90
16247;DHT22;8231;50.866;7.944;2022-09-03T03:05:19;11.00;99.90
16247;DHT22;8231;50.866;7.944;2022-09-03T03:07:48;11.10;99.90
16247;DHT22;8231;50.866;7.944;2022-09-03T03:10:16;11.10;99.90
16247;DHT22;8231;50.866;7.944;2022-09-03T03:12:44;11.10;99.90
16247;DHT22;8231;50.866;7.944;2022-09-03T03:15:12;11.20;99.90
16247;DHT22;8231;50.866;7.944;2022-09-03T03:17:41;11.30;99.90
16247;DHT22;8231;50.866;7.944;2022-09-03T03:20:09;11.30;99.90
16247;DHT22;8231;50.866;7.944;2022-09-03T03:22:39;11.30;99.90
16247;DHT22;8231;50.866;7.944;2022-09-03T03:25:08;11.40;99.90
16247;DHT22;8231;50.866;7.944;2022-09-03T03:27:36;11.60;99.90
16247;DHT22;8231;50.866;7.944;2022-09-03T03:30:09;11.60;99.90
16247;DHT22;8231;50.866;7.944;2022-09-03T03:32:38;11.80;99.90
16247;DHT22;8231;50.866;7.944;2022-09-03T03:35:07;11.80;99.90
16247;DHT22;8231;50.866;7.944;2022-09-03T03:37:39;11.70;99.90
16247;DHT22;8231;50.866;7.944;2022-09-03T03:40:08;11.80;99.90
16247;DHT22;8231;50.866;7.944;2022-09-03T03:42:36;11.70;99.90
16247;DHT22;8231;50.866;7.944;2022-09-03T03:45:05;11.60;99.90
16247;DHT22;8231;50.866;7.944;2022-09-03T03:47:33;11.80;99.90
16247;DHT22;8231;50.866;7.944;2022-09-03T03:50:02;11.80;99.90
16247;DHT22;8231;50.866;7.944;2022-09-03T03:52:31;11.90;99.90
16247;DHT22;8231;50.866;7.944;2022-09-03T03:55:00;11.90;99.90
16247;DHT22;8231;50.866;7.944;2022-09-03T03:57:30;12.00;99.90
16247;DHT22;8231;50.866;7.944;2022-09-03T03:59:58;12.00;99.90
16247;DHT22;8231;50.866;7.944;2022-09-03T04:02:40;12.10;99.90
16247;DHT22;8231;50.866;7.944;2022-09-03T04:05:08;12.10;99.90
16247;DHT22;8231;50.866;7.944;2022-09-03T04:07:37;12.20;99.90
16247;DHT22;8231;50.866;7.944;2022-09-03T04:10:08;12.20;99.90
16247;DHT22;8231;50.866;7.944;2022-09-03T04:12:36;12.20;99.90
16247;DHT22;8231;50.866;7.944;2022-09-03T04:15:04;12.20;99.90
16247;DHT22;8231;50.866;7.944;2022-09-03T04:17:33;12.20;99.90
16247;DHT22;8231;50.866;7.944;2022-09-03T04:20:01;12.20;99.90
16247;DHT22;8231;50.866;7.944;2022-09-03T04:22:30;12.30;99.90
16247;DHT22;8231;50.866;7.944;2022-09-03T04:24:58;12.30;99.90
16247;DHT22;8231;50.866;7.944;2022-09-03T04:27:28;12.50;99.90
16247;DHT22;8231;50.866;7.944;2022-09-03T04:30:12;12.70;99.90
16247;DHT22;8231;50.866;7.944;2022-09-03T04:32:40;12.80;99.90
16247;DHT22;8231;50.866;7.944;2022-09-03T04:35:21;12.80;99.90
16247;DHT22;8231;50.866;7.944;2022-09-03T04:37:50;12.80;99.90
16247;DHT22;8231;50.866;7.944;2022-09-03T04:40:21;12.90;99.90
16247;DHT22;8231;50.866;7.944;2022-09-03T04:42:49;12.90;99.90
16247;DHT22;8231;50.866;7.944;2022-09-03T04:45:19;13.00;99.90
16247;DHT22;8231;50.866;7.944;2022-09-03T04:47:55;13.10;99.90
16247;DHT22;8231;50.866;7.944;2022-09-03T04:50:24;13.00;99.90
16247;DHT22;8231;50.866;7.944;2022-09-03T04:52:59;13.00;99.90
16247;DHT22;8231;50.866;7.944;2022-09-03T04:55:34;13.00;99.90
16247;DHT22;8231;50.866;7.944;2022-09-03T04:58:03;13.10;99.90
16247;DHT22;8231;50.866;7.944;2022-09-03T05:00:36;13.10;99.90
16247;DHT22;8231;50.866;7.944;2022-09-03T05:03:05;13.10;99.90
16247;DHT22;8231;50.866;7.944;2022-09-03T05:05:34;13.30;99.90
16247;DHT22;8231;50.866;7.944;2022-09-03T05:08:06;13.30;99.90
16247;DHT22;8231;50.866;7.944;2022-09-03T05:10:35;13.40;99.90
16247;DHT22;8231;50.866;7.944;2022-09-03T05:13:04;13.40;99.90
16247;DHT22;8231;50.866;7.944;2022-09-03T05:15:32;13.50;99.90
16247;DHT22;8231;50.866;7.944;2022-09-03T05:18:02;13.60;99.90
16247;DHT22;8231;50.866;7.944;2022-09-03T05:20:31;13.70;99.90
16247;DHT22;8231;50.866;7.944;2022-09-03T05:23:01;13.70;99.90
16247;DHT22;8231;50.866;7.944;2022-09-03T05:25:30;13.70;99.90
16247;DHT22;8231;50.866;7.944;2022-09-03T05:27:59;13.80;99.90
16247;DHT22;8231;50.866;7.944;2022-09-03T05:30:27;13.90;99.90
16247;DHT22;8231;50.866;7.944;2022-09-03T05:32:56;13.90;99.90
16247;DHT22;8231;50.866;7.944;2022-09-03T05:35:25;14.10;99.90
16247;DHT22;8231;50.866;7.944;2022-09-03T05:37:56;14.20;99.90
16247;DHT22;8231;50.866;7.944;2022-09-03T05:40:27;14.40;99.90
16247;DHT22;8231;50.866;7.944;2022-09-03T05:42:58;14.50;99.90
16247;DHT22;8231;50.866;7.944;2022-09-03T05:45:31;14.70;99.90
16247;DHT22;8231;50.866;7.944;2022-09-03T05:47:59;14.90;99.90
16247;DHT22;8231;50.866;7.944;2022-09-03T05:50:29;15.00;99.90
16247;DHT22;8231;50.866;7.944;2022-09-03T05:52:58;15.10;99.90
16247;DHT22;8231;50.866;7.944;2022-09-03T05:55:26;15.30;99.90
16247;DHT22;8231;50.866;7.944;2022-09-03T05:57:55;15.40;99.90
16247;DHT22;8231;50.866;7.944;2022-09-03T06:00:23;15.50;99.90
16247;DHT22;8231;50.866;7.944;2022-09-03T06:02:52;15.60;99.90
16247;DHT22;8231;50.866;7.944;2022-09-03T06:05:21;15.70;99.90
16247;DHT22;8231;50.866;7.944;2022-09-03T06:07:51;15.90;99.90
16247;DHT22;8231;50.866;7.944;2022-09-03T06:10:19;16.00;99.90
16247;DHT22;8231;50.866;7.944;2022-09-03T06:12:53;16.30;99.90
16247;DHT22;8231;50.866;7.944;2022-09-03T06:15:23;16.30;99.90
16247;DHT22;8231;50.866;7.944;2022-09-03T06:17:51;16.40;99.90
16247;DHT22;8231;50.866;7.944;2022-09-03T06:20:20;16.60;99.90
16247;DHT22;8231;50.866;7.944;2022-09-03T06:22:48;17.20;99.60
16247;DHT22;8231;50.866;7.944;2022-09-03T06:25:20;17.90;98.50
16247;DHT22;8231;50.866;7.944;2022-09-03T06:27:49;18.70;97.40
16247;DHT22;8231;50.866;7.944;2022-09-03T06:30:27;19.20;96.70
16247;DHT22;8231;50.866;7.944;2022-09-03T06:32:55;19.90;95.50
16247;DHT22;8231;50.866;7.944;2022-09-03T06:35:25;20.30;93.50
16247;DHT22;8231;50.866;7.944;2022-09-03T06:37:55;20.70;92.70
16247;DHT22;8231;50.866;7.944;2022-09-03T06:40:25;20.70;92.00
16247;DHT22;8231;50.866;7.944;2022-09-03T06:42:56;20.70;91.30
16247;DHT22;8231;50.866;7.944;2022-09-03T06:45:29;20.70;91.20
16247;DHT22;8231;50.866;7.944;2022-09-03T06:47:58;20.60;90.80
16247;DHT22;8231;50.866;7.944;2022-09-03T06:50:26;20.20;91.50
16247;DHT22;8231;50.866;7.944;2022-09-03T06:53:00;20.00;91.60
16247;DHT22;8231;50.866;7.944;2022-09-03T06:55:30;19.90;91.70
16247;DHT22;8231;50.866;7.944;2022-09-03T06:57:58;19.70;92.10
16247;DHT22;8231;50.866;7.944;2022-09-03T07:00:27;19.60;92.40
16247;DHT22;8231;50.866;7.944;2022-09-03T07:02:57;19.40;92.50
16247;DHT22;8231;50.866;7.944;2022-09-03T07:05:26;19.40;92.20
16247;DHT22;8231;50.866;7.944;2022-09-03T07:07:54;19.50;92.30
16247;DHT22;8231;50.866;7.944;2022-09-03T07:10:23;20.00;92.30
16247;DHT22;8231;50.866;7.944;2022-09-03T07:12:54;20.00;91.80
16247;DHT22;8231;50.866;7.944;2022-09-03T07:15:22;20.00;91.10
16247;DHT22;8231;50.866;7.944;2022-09-03T07:17:52;19.80;91.30
16247;DHT22;8231;50.866;7.944;2022-09-03T07:20:20;19.80;91.70
16247;DHT22;8231;50.866;7.944;2022-09-03T07:22:49;20.00;91.50
16247;DHT22;8231;50.866;7.944;2022-09-03T07:25:17;19.90;91.20
16247;DHT22;8231;50.866;7.944;2022-09-03T07:27:45;20.00;90.80
16247;DHT22;8231;50.866;7.944;2022-09-03T07:30:17;20.30;90.70
16247;DHT22;8231;50.866;7.944;2022-09-03T07:32:46;20.90;90.00
16247;DHT22;8231;50.866;7.944;2022-09-03T07:35:17;20.70;89.50
16247;DHT22;8231;50.866;7.944;2022-09-03T07:37:47;20.40;89.40
16247;DHT22;8231;50.866;7.944;2022-09-03T07:40:16;20.40;90.00
16247;DHT22;8231;50.866;7.944;2022-09-03T07:42:45;21.10;88.80
16247;DHT22;8231;50.866;7.944;2022-09-03T07:45:21;21.20;87.70
16247;DHT22;8231;50.866;7.944;2022-09-03T07:47:50;21.70;85.70
16247;DHT22;8231;50.866;7.944;2022-09-03T07:50:18;22.40;84.20
16247;DHT22;8231;50.866;7.944;2022-09-03T07:52:47;22.70;82.40
16247;DHT22;8231;50.866;7.944;2022-09-03T07:55:15;22.70;81.90
16247;DHT22;8231;50.866;7.944;2022-09-03T07:57:43;22.60;81.60
16247;DHT22;8231;50.866;7.944;2022-09-03T08:00:13;23.00;79.90
16247;DHT22;8231;50.866;7.944;2022-09-03T08:02:43;23.20;79.20
16247;DHT22;8231;50.866;7.944;2022-09-03T08:05:12;22.30;80.00
16247;DHT22;8231;50.866;7.944;2022-09-03T08:07:40;21.90;81.10
16247;DHT22;8231;50.866;7.944;2022-09-03T08:10:09;21.70;81.40
16247;DHT22;8231;50.866;7.944;2022-09-03T08:12:37;21.70;83.10
16247;DHT22;8231;50.866;7.944;2022-09-03T08:15:06;21.60;82.20
16247;DHT22;8231;50.866;7.944;2022-09-03T08:17:35;21.60;82.00
16247;DHT22;8231;50.866;7.944;2022-09-03T08:20:05;21.60;82.20
16247;DHT22;8231;50.866;7.944;2022-09-03T08:22:34;21.50;81.70
16247;DHT22;8231;50.866;7.944;2022-09-03T08:25:03;21.10;82.90
16247;DHT22;8231;50.866;7.944;2022-09-03T08:27:35;20.60;84.20
16247;DHT22;8231;50.866;7.944;2022-09-03T08:30:04;20.60;84.70
16247;DHT22;8231;50.866;7.944;2022-09-03T08:32:37;20.70;84.30
16247;DHT22;8231;50.866;7.944;2022-09-03T08:35:07;20.60;84.70
16247;DHT22;8231;50.866;7.944;2022-09-03T08:37:36;20.70;84.80
16247;DHT22;8231;50.866;7.944;2022-09-03T08:40:05;20.50;85.20
16247;DHT22;8231;50.866;7.944;2022-09-03T08:42:43;20.50;85.40
16247;DHT22;8231;50.866;7.944;2022-09-03T08:45:16;20.80;85.40
16247;DHT22;8231;50.866;7.944;2022-09-03T08:47:48;21.20;84.60
16247;DHT22;8231;50.866;7.944;2022-09-03T08:50:24;21.40;83.90
16247;DHT22;8231;50.866;7.944;2022-09-03T08:52:56;20.90;84.50
16247;DHT22;8231;50.866;7.944;2022-09-03T08:55:28;20.60;84.70
16247;DHT22;8231;50.866;7.944;2022-09-03T08:58:00;20.60;85.10
16247;DHT22;8231;50.866;7.944;2022-09-03T09:00:40;20.30;85.90
16247;DHT22;8231;50.866;7.944;2022-09-03T09:03:32;20.20;86.50
16247;DHT22;8231;50.866;7.944;2022-09-03T09:06:11;20.50;86.30
16247;DHT22;8231;50.866;7.944;2022-09-03T09:08:48;20.70;85.80
16247;DHT22;8231;50.866;7.944;2022-09-03T09:11:25;20.80;86.30
16247;DHT22;8231;50.866;7.944;2022-09-03T09:14:00;21.10;85.90
16247;DHT22;8231;50.866;7.944;2022-09-03T09:16:37;21.20;86.60
16247;DHT22;8231;50.866;7.944;2022-09-03T09:19:26;21.30;85.60
16247;DHT22;8231;50.866;7.944;2022-09-03T09:22:00;21.20;85.70
16247;DHT22;8231;50.866;7.944;2022-09-03T09:24:36;21.00;86.30
16247;DHT22;8231;50.866;7.944;2022-09-03T09:27:06;21.20;86.80
16247;DHT22;8231;50.866;7.944;2022-09-03T09:29:45;21.30;85.60
16247;DHT22;8231;50.866;7.944;2022-09-03T09:32:15;21.40;86.00
16247;DHT22;8231;50.866;7.944;2022-09-03T09:34:47;21.40;85.70
16247;DHT22;8231;50.866;7.944;2022-09-03T09:37:20;21.00;86.30
16247;DHT22;8231;50.866;7.944;2022-09-03T09:39:57;21.30;86.70
16247;DHT22;8231;50.866;7.944;2022-09-03T09:42:26;21.40;85.80
16247;DHT22;8231;50.866;7.944;2022-09-03T09:45:08;21.50;86.30
16247;DHT22;8231;50.866;7.944;2022-09-03T09:47:38;21.60;85.70
16247;DHT22;8231;50.866;7.944;2022-09-03T09:50:17;21.90;86.00
16247;DHT22;8231;50.866;7.944;2022-09-03T09:53:01;22.40;84.60
16247;DHT22;8231;50.866;7.944;2022-09-03T09:55:31;22.70;83.90
16247;DHT22;8231;50.866;7.944;2022-09-03T09:58:04;22.60;83.30
16247;DHT22;8231;50.866;7.944;2022-09-03T10:00:40;22.60;83.70
16247;DHT22;8231;50.866;7.944;2022-09-03T10:03:10;22.50;84.20
16247;DHT22;8231;50.866;7.944;2022-09-03T10:05:40;22.80;83.70
16247;DHT22;8231;50.866;7.944;2022-09-03T10:08:19;23.10;83.60
16247;DHT22;8231;50.866;7.944;2022-09-03T10:10:49;23.00;82.70
16247;DHT22;8231;50.866;7.944;2022-09-03T10:13:20;22.70;82.70
16247;DHT22;8231;50.866;7.944;2022-09-03T10:15:57;22.40;83.70
16247;DHT22;8231;50.866;7.944;2022-09-03T10:18:36;22.40;84.90
16247;DHT22;8231;50.866;7.944;2022-09-03T10:21:10;22.60;84.40
16247;DHT22;8231;50.866;7.944;2022-09-03T10:24:02;22.70;84.30
16247;DHT22;8231;50.866;7.944;2022-09-03T10:26:34;22.90;84.30
16247;DHT22;8231;50.866;7.944;2022-09-03T10:29:05;22.90;83.80
16247;DHT22;8231;50.866;7.944;2022-09-03T10:31:47;22.50;84.50
16247;DHT22;8231;50.866;7.944;2022-09-03T10:34:24;22.50;84.30
16247;DHT22;8231;50.866;7.944;2022-09-03T10:37:08;22.20;85.00
16247;DHT22;8231;50.866;7.944;2022-09-03T10:39:55;22.10;85.50
16247;DHT22;8231;50.866;7.944;2022-09-03T10:42:38;22.30;84.80
16247;DHT22;8231;50.866;7.944;2022-09-03T10:45:18;22.70;84.40
16247;DHT22;8231;50.866;7.944;2022-09-03T10:48:06;22.70;84.70
16247;DHT22;8231;50.866;7.944;2022-09-03T10:50:45;22.40;85.80
16247;DHT22;8231;50.866;7.944;2022-09-03T10:53:29;22.30;86.70
16247;DHT22;8231;50.866;7.944;2022-09-03T10:56:10;22.30;86.60
16247;DHT22;8231;50.866;7.944;2022-09-03T10:59:01;22.30;86.70
16247;DHT22;8231;50.866;7.944;2022-09-03T11:01:36;22.40;87.00
16247;DHT22;8231;50.866;7.944;2022-09-03T11:04:17;22.50;88.00
16247;DHT22;8231;50.866;7.944;2022-09-03T11:06:50;22.60;86.70
16247;DHT22;8231;50.866;7.944;2022-09-03T11:09:23;22.80;86.60
16247;DHT22;8231;50.866;7.944;2022-09-03T11:11:58;23.00;85.70
16247;DHT22;8231;50.866;7.944;2022-09-03T11:14:34;23.40;85.20
16247;DHT22;8231;50.866;7.944;2022-09-03T11:17:08;23.50;84.70
16247;DHT22;8231;50.866;7.944;2022-09-03T11:19:43;23.40;84.60
16247;DHT22;8231;50.866;7.944;2022-09-03T11:22:14;23.10;85.00
16247;DHT22;8231;50.866;7.944;2022-09-03T11:24:52;23.20;85.40
16247;DHT22;8231;50.866;7.944;2022-09-03T11:27:34;23.30;84.70
16247;DHT22;8231;50.866;7.944;2022-09-03T11:30:05;23.60;85.90
16247;DHT22;8231;50.866;7.944;2022-09-03T11:32:44;23.40;86.20
16247;DHT22;8231;50.866;7.944;2022-09-03T11:35:25;23.30;85.70
16247;DHT22;8231;50.866;7.944;2022-09-03T11:37:58;23.10;86.50
16247;DHT22;8231;50.866;7.944;2022-09-03T11:40:35;23.40;86.90
16247;DHT22;8231;50.866;7.944;2022-09-03T11:43:11;23.50;86.40
16247;DHT22;8231;50.866;7.944;2022-09-03T11:45:41;24.10;86.20
16247;DHT22;8231;50.866;7.944;2022-09-03T11:48:33;24.40;86.10
16247;DHT22;8231;50.866;7.944;2022-09-03T11:51:03;24.90;84.90
16247;DHT22;8231;50.866;7.944;2022-09-03T11:53:53;25.50;83.30
16247;DHT22;8231;50.866;7.944;2022-09-03T11:56:21;25.60;82.90
16247;DHT22;8231;50.866;7.944;2022-09-03T11:59:16;25.50;83.00
16247;DHT22;8231;50.866;7.944;2022-09-03T12:01:49;24.90;84.00
16247;DHT22;8231;50.866;7.944;2022-09-03T12:04:21;24.70;84.80
16247;DHT22;8231;50.866;7.944;2022-09-03T12:07:19;24.90;84.80
16247;DHT22;8231;50.866;7.944;2022-09-03T12:10:13;24.90;84.90
16247;DHT22;8231;50.866;7.944;2022-09-03T12:13:10;25.30;85.00
16247;DHT22;8231;50.866;7.944;2022-09-03T12:16:05;26.50;81.50
16247;DHT22;8231;50.866;7.944;2022-09-03T12:18:39;27.30;78.00
16247;DHT22;8231;50.866;7.944;2022-09-03T12:21:09;27.40;77.80
16247;DHT22;8231;50.866;7.944;2022-09-03T12:23:41;27.30;78.00
16247;DHT22;8231;50.866;7.944;2022-09-03T12:26:12;27.10;77.80
16247;DHT22;8231;50.866;7.944;2022-09-03T12:28:43;26.50;78.80
16247;DHT22;8231;50.866;7.944;2022-09-03T12:31:17;26.30;79.90
16247;DHT22;8231;50.866;7.944;2022-09-03T12:33:50;26.10;80.90
16247;DHT22;8231;50.866;7.944;2022-09-03T12:36:19;26.10;80.80
16247;DHT22;8231;50.866;7.944;2022-09-03T12:38:49;26.20;80.10
16247;DHT22;8231;50.866;7.944;2022-09-03T12:41:37;26.30;80.40
16247;DHT22;8231;50.866;7.944;2022-09-03T12:44:05;26.90;79.70
16247;DHT22;8231;50.866;7.944;2022-09-03T12:46:34;27.20;79.80
16247;DHT22;8231;50.866;7.944;2022-09-03T12:49:04;26.90;79.20
16247;DHT22;8231;50.866;7.944;2022-09-03T12:52:00;26.30;80.00
16247;DHT22;8231;50.866;7.944;2022-09-03T12:54:33;25.70;81.50
16247;DHT22;8231;50.866;7.944;2022-09-03T12:57:02;25.90;81.30
16247;DHT22;8231;50.866;7.944;2022-09-03T12:59:32;26.00;80.80
16247;DHT22;8231;50.866;7.944;2022-09-03T13:02:09;26.40;80.70
16247;DHT22;8231;50.866;7.944;2022-09-03T13:04:41;27.00;80.50
16247;DHT22;8231;50.866;7.944;2022-09-03T13:07:13;27.30;78.40
16247;DHT22;8231;50.866;7.944;2022-09-03T13:09:45;27.50;78.50
16247;DHT22;8231;50.866;7.944;2022-09-03T13:12:21;27.10;77.70
16247;DHT22;8231;50.866;7.944;2022-09-03T13:14:52;26.60;79.10
16247;DHT22;8231;50.866;7.944;2022-09-03T13:17:29;26.60;79.50
16247;DHT22;8231;50.866;7.944;2022-09-03T13:20:27;27.10;78.00
16247;DHT22;8231;50.866;7.944;2022-09-03T13:23:07;27.70;76.10
16247;DHT22;8231;50.866;7.944;2022-09-03T13:25:44;27.70;74.20
16247;DHT22;8231;50.866;7.944;2022-09-03T13:28:26;27.30;74.30
16247;DHT22;8231;50.866;7.944;2022-09-03T13:31:22;27.10;74.60
16247;DHT22;8231;50.866;7.944;2022-09-03T13:33:56;26.70;74.80
16247;DHT22;8231;50.866;7.944;2022-09-03T13:36:30;26.20;76.10
16247;DHT22;8231;50.866;7.944;2022-09-03T13:39:03;26.40;76.90
16247;DHT22;8231;50.866;7.944;2022-09-03T13:41:36;25.90;78.20
16247;DHT22;8231;50.866;7.944;2022-09-03T13:44:09;26.10;77.90
16247;DHT22;8231;50.866;7.944;2022-09-03T13:46:44;26.10;77.90
16247;DHT22;8231;50.866;7.944;2022-09-03T13:49:26;25.90;78.70
16247;DHT22;8231;50.866;7.944;2022-09-03T13:52:36;25.70;79.40
16247;DHT22;8231;50.866;7.944;2022-09-03T13:55:11;25.40;79.70
16247;DHT22;8231;50.866;7.944;2022-09-03T13:57:48;25.20;80.20
16247;DHT22;8231;50.866;7.944;2022-09-03T14:00:29;25.10;80.70
16247;DHT22;8231;50.866;7.944;2022-09-03T14:03:06;24.90;81.70
16247;DHT22;8231;50.866;7.944;2022-09-03T14:05:49;25.00;80.80
16247;DHT22;8231;50.866;7.944;2022-09-03T14:08:26;25.20;80.80
16247;DHT22;8231;50.866;7.944;2022-09-03T14:11:02;25.10;81.20
16247;DHT22;8231;50.866;7.944;2022-09-03T14:13:47;25.30;80.90
16247;DHT22;8231;50.866;7.944;2022-09-03T14:16:25;25.30;81.00
16247;DHT22;8231;50.866;7.944;2022-09-03T14:18:58;25.10;81.10
16247;DHT22;8231;50.866;7.944;2022-09-03T14:21:33;25.00;81.30
16247;DHT22;8231;50.866;7.944;2022-09-03T14:24:09;25.10;81.30
16247;DHT22;8231;50.866;7.944;2022-09-03T14:26:49;25.20;81.60
16247;DHT22;8231;50.866;7.944;2022-09-03T14:29:21;25.20;81.80
16247;DHT22;8231;50.866;7.944;2022-09-03T14:32:08;25.00;82.30
16247;DHT22;8231;50.866;7.944;2022-09-03T14:34:51;24.90;82.90
16247;DHT22;8231;50.866;7.944;2022-09-03T14:37:36;24.70;83.20
16247;DHT22;8231;50.866;7.944;2022-09-03T14:40:13;24.80;83.60
16247;DHT22;8231;50.866;7.944;2022-09-03T14:42:59;24.80;83.90
16247;DHT22;8231;50.866;7.944;2022-09-03T14:45:43;25.10;83.90
16247;DHT22;8231;50.866;7.944;2022-09-03T14:48:39;24.90;83.40
16247;DHT22;8231;50.866;7.944;2022-09-03T14:51:20;24.90;84.00
16247;DHT22;8231;50.866;7.944;2022-09-03T14:54:14;24.80;84.30
16247;DHT22;8231;50.866;7.944;2022-09-03T14:56:48;24.50;85.10
16247;DHT22;8231;50.866;7.944;2022-09-03T14:59:39;24.40;86.10
16247;DHT22;8231;50.866;7.944;2022-09-03T15:05:14;24.90;86.00
16247;DHT22;8231;50.866;7.944;2022-09-03T15:07:50;24.40;87.40
16247;DHT22;8231;50.866;7.944;2022-09-03T15:10:27;24.20;88.80
16247;DHT22;8231;50.866;7.944;2022-09-03T15:13:06;24.40;88.90
16247;DHT22;8231;50.866;7.944;2022-09-03T15:15:48;24.30;88.40
16247;DHT22;8231;50.866;7.944;2022-09-03T15:18:25;24.30;88.50
16247;DHT22;8231;50.866;7.944;2022-09-03T15:21:02;24.50;88.10
16247;DHT22;8231;50.866;7.944;2022-09-03T15:23:53;24.40;88.20
16247;DHT22;8231;50.866;7.944;2022-09-03T15:29:47;24.40;88.60
16247;DHT22;8231;50.866;7.944;2022-09-03T15:32:26;24.20;88.60
16247;DHT22;8231;50.866;7.944;2022-09-03T15:35:05;24.10;89.20
16247;DHT22;8231;50.866;7.944;2022-09-03T15:37:41;24.10;89.40
16247;DHT22;8231;50.866;7.944;2022-09-03T15:40:22;24.20;89.40
16247;DHT22;8231;50.866;7.944;2022-09-03T15:42:56;24.10;89.70
16247;DHT22;8231;50.866;7.944;2022-09-03T15:45:33;24.20;89.40
16247;DHT22;8231;50.866;7.944;2022-09-03T15:48:16;24.20;89.70
16247;DHT22;8231;50.866;7.944;2022-09-03T15:50:52;24.00;89.70
16247;DHT22;8231;50.866;7.944;2022-09-03T15:53:32;24.10;90.00
16247;DHT22;8231;50.866;7.944;2022-09-03T15:56:20;24.00;89.70
16247;DHT22;8231;50.866;7.944;2022-09-03T15:58:55;24.00;89.90
16247;DHT22;8231;50.866;7.944;2022-09-03T16:01:34;23.90;90.00
16247;DHT22;8231;50.866;7.944;2022-09-03T16:04:24;23.80;89.90
16247;DHT22;8231;50.866;7.944;2022-09-03T16:06:58;23.80;90.00
16247;DHT22;8231;50.866;7.944;2022-09-03T16:09:38;23.90;89.80
16247;DHT22;8231;50.866;7.944;2022-09-03T16:12:33;23.90;89.80
16247;DHT22;8231;50.866;7.944;2022-09-03T16:15:07;24.00;89.70
16247;DHT22;8231;50.866;7.944;2022-09-03T16:17:44;24.00;89.70
16247;DHT22;8231;50.866;7.944;2022-09-03T16:20:19;24.10;89.50
16247;DHT22;8231;50.866;7.944;2022-09-03T16:22:53;24.10;89.60
16247;DHT22;8231;50.866;7.944;2022-09-03T16:25:25;24.20;89.60
16247;DHT22;8231;50.866;7.944;2022-09-03T16:27:59;24.10;89.20
16247;DHT22;8231;50.866;7.944;2022-09-03T16:30:49;24.00;89.30
16247;DHT22;8231;50.866;7.944;2022-09-03T16:33:28;23.90;89.90
16247;DHT22;8231;50.866;7.944;2022-09-03T16:36:05;23.80;89.80
16247;DHT22;8231;50.866;7.944;2022-09-03T16:38:44;23.40;90.30
16247;DHT22;8231;50.866;7.944;2022-09-03T16:41:21;23.30;90.60